sensor_id;sensor_type;location;lat;lon;timestamp;temperature;humidity
8953;DHT22;4511;50.890;8.054;2023-07-28T00:01:33;16.40;99.90
8953;DHT22;4511;50.890;8.054;2023-07-28T00:04:00;16.40;99.90
8953;DHT22;4511;50.890;8.054;2023-07-28T00:06:29;16.40;99.90
8953;DHT22;4511;50.890;8.054;2023-07-28T00:08:56;16.40;99.90
8953;DHT22;4511;50.890;8.054;2023-07-28T00:11:23;16.30;99.90
8953;DHT22;4511;50.890;8.054;2023-07-28T00:13:51;16.30;99.90
8953;DHT22;4511;50.890;8.054;2023-07-28T00:16:19;16.40;99.90
8953;DHT22;4511;50.890;8.054;2023-07-28T00:18:45;16.50;99.90
8953;DHT22;4511;50.890;8.054;2023-07-28T00:21:12;16.50;99.90
8953;DHT22;4511;50.890;8.054;2023-07-28T00:23:39;16.50;99.90
8953;DHT22;4511;50.890;8.054;2023-07-28T00:26:06;16.50;99.90
8953;DHT22;4511;50.890;8.054;2023-07-28T00:28:33;16.40;99.90
8953;DHT22;4511;50.890;8.054;2023-07-28T00:31:01;16.30;99.90
8953;DHT22;4511;50.890;8.054;2023-07-28T00:33:28;16.30;99.90
8953;DHT22;4511;50.890;8.054;2023-07-28T00:35:55;16.20;99.90
8953;DHT22;4511;50.890;8.054;2023-07-28T00:38:22;16.20;99.90
8953;DHT22;4511;50.890;8.054;2023-07-28T00:40:48;16.20;99.90
8953;DHT22;4511;50.890;8.054;2023-07-28T00:43:15;16.30;99.90
8953;DHT22;4511;50.890;8.054;2023-07-28T00:45:43;16.30;99.90
8953;DHT22;4511;50.890;8.054;2023-07-28T00:48:13;16.30;99.90
8953;DHT22;4511;50.890;8.054;2023-07-28T00:50:41;16.20;99.90
8953;DHT22;4511;50.890;8.054;2023-07-28T00:53:08;16.30;99.90
8953;DHT22;4511;50.890;8.054;2023-07-28T00:55:35;16.30;99.90
8953;DHT22;4511;50.890;8.054;2023-07-28T00:58:02;16.20;99.90
8953;DHT22;4511;50.890;8.054;2023-07-28T01:00:29;16.20;99.90
8953;DHT22;4511;50.890;8.054;2023-07-28T01:02:56;16.30;99.90
8953;DHT22;4511;50.890;8.054;2023-07-28T01:05:28;16.30;99.90
8953;DHT22;4511;50.890;8.054;2023-07-28T01:08:11;16.20;99.90
8953;DHT22;4511;50.890;8.054;2023-07-28T01:10:49;16.30;99.90
8953;DHT22;4511;50.890;8.054;2023-07-28T01:13:18;16.30;99.90
8953;DHT22;4511;50.890;8.054;2023-07-28T01:15:53;16.20;99.90
8953;DHT22;4511;50.890;8.054;2023-07-28T01:18:29;16.20;99.90
8953;DHT22;4511;50.890;8.054;2023-07-28T01:21:06;16.20;99.90
8953;DHT22;4511;50.890;8.054;2023-07-28T01:23:55;16.20;99.90
8953;DHT22;4511;50.890;8.054;2023-07-28T01:26:40;16.20;99.90
8953;DHT22;4511;50.890;8.054;2023-07-28T01:29:11;16.20;99.90
8953;DHT22;4511;50.890;8.054;2023-07-28T01:31:48;16.10;99.90
8953;DHT22;4511;50.890;8.054;2023-07-28T01:34:30;16.10;99.90
8953;DHT22;4511;50.890;8.054;2023-07-28T01:37:00;16.20;99.90
8953;DHT22;4511;50.890;8.054;2023-07-28T01:39:42;16.10;99.90
8953;DHT22;4511;50.890;8.054;2023-07-28T01:42:45;16.10;99.90
8953;DHT22;4511;50.890;8.054;2023-07-28T01:45:24;16.10;99.90
8953;DHT22;4511;50.890;8.054;2023-07-28T01:48:07;16.10;99.90
8953;DHT22;4511;50.890;8.054;2023-07-28T01:51:07;16.10;99.90
8953;DHT22;4511;50.890;8.054;2023-07-28T01:54:05;16.20;99.90
8953;DHT22;4511;50.890;8.054;2023-07-28T01:56:49;16.20;99.90
8953;DHT22;4511;50.890;8.054;2023-07-28T01:59:45;16.20;99.90
8953;DHT22;4511;50.890;8.054;2023-07-28T02:03:07;16.30;99.90
8953;DHT22;4511;50.890;8.054;2023-07-28T02:05:39;16.30;99.90
8953;DHT22;4511;50.890;8.054;2023-07-28T02:08:40;16.20;99.90
8953;DHT22;4511;50.890;8.054;2023-07-28T02:11:14;16.20;99.90
8953;DHT22;4511;50.890;8.054;2023-07-28T02:13:48;16.30;99.90
8953;DHT22;4511;50.890;8.054;2023-07-28T02:16:29;16.30;99.90
8953;DHT22;4511;50.890;8.054;2023-07-28T02:18:57;16.30;99.90
8953;DHT22;4511;50.890;8.054;2023-07-28T02:21:26;16.30;99.90
8953;DHT22;4511;50.890;8.054;2023-07-28T02:23:55;16.30;99.90
8953;DHT22;4511;50.890;8.054;2023-07-28T02:26:28;16.40;99.90
8953;DHT22;4511;50.890;8.054;2023-07-28T02:28:55;16.40;99.90
8953;DHT22;4511;50.890;8.054;2023-07-28T02:31:27;16.40;99.90
8953;DHT22;4511;50.890;8.054;2023-07-28T02:33:55;16.50;99.90
8953;DHT22;4511;50.890;8.054;2023-07-28T02:36:24;16.40;99.90
8953;DHT22;4511;50.890;8.054;2023-07-28T02:38:51;16.40;99.90
8953;DHT22;4511;50.890;8.054;2023-07-28T02:41:20;16.40;99.90
8953;DHT22;4511;50.890;8.054;2023-07-28T02:43:49;16.40;99.90
8953;DHT22;4511;50.890;8.054;2023-07-28T02:46:16;16.40;99.90
8953;DHT22;4511;50.890;8.054;2023-07-28T02:48:47;16.40;99.90
8953;DHT22;4511;50.890;8.054;2023-07-28T02:51:27;16.40;99.90
8953;DHT22;4511;50.890;8.054;2023-07-28T02:53:59;16.40;99.90
8953;DHT22;4511;50.890;8.054;2023-07-28T02:56:40;16.50;99.90
8953;DHT22;4511;50.890;8.054;2023-07-28T02:59:24;16.40;99.90
8953;DHT22;4511;50.890;8.054;2023-07-28T03:01:54;16.40;99.90
8953;DHT22;4511;50.890;8.054;2023-07-28T03:08:36;16.40;99.90
8953;DHT22;4511;50.890;8.054;2023-07-28T03:11:22;16.30;99.90
8953;DHT22;4511;50.890;8.054;2023-07-28T03:14:12;16.30;99.90
8953;DHT22;4511;50.890;8.054;2023-07-28T03:17:18;16.40;99.90
8953;DHT22;4511;50.890;8.054;2023-07-28T03:23:08;16.50;99.90
8953;DHT22;4511;50.890;8.054;2023-07-28T03:25:43;16.40;99.90
8953;DHT22;4511;50.890;8.054;2023-07-28T03:28:10;16.50;99.90
8953;DHT22;4511;50.890;8.054;2023-07-28T03:30:53;16.40;99.90
8953;DHT22;4511;50.890;8.054;2023-07-28T03:33:22;16.50;99.90
8953;DHT22;4511;50.890;8.054;2023-07-28T03:36:01;16.50;99.90
8953;DHT22;4511;50.890;8.054;2023-07-28T03:38:37;16.50;99.90
8953;DHT22;4511;50.890;8.054;2023-07-28T03:41:12;16.50;99.90
8953;DHT22;4511;50.890;8.054;2023-07-28T03:43:52;16.60;99.90
8953;DHT22;4511;50.890;8.054;2023-07-28T03:46:25;16.60;99.90
8953;DHT22;4511;50.890;8.054;2023-07-28T03:49:08;16.60;99.90
8953;DHT22;4511;50.890;8.054;2023-07-28T03:51:58;16.60;99.90
8953;DHT22;4511;50.890;8.054;2023-07-28T03:58:10;16.70;99.90
8953;DHT22;4511;50.890;8.054;2023-07-28T04:02:20;16.60;99.90
8953;DHT22;4511;50.890;8.054;2023-07-28T04:04:23;16.60;99.90
8953;DHT22;4511;50.890;8.054;2023-07-28T04:13:28;16.70;99.90
8953;DHT22;4511;50.890;8.054;2023-07-28T04:27:32;16.60;99.90
8953;DHT22;4511;50.890;8.054;2023-07-28T04:37:23;16.60;99.90
8953;DHT22;4511;50.890;8.054;2023-07-28T04:47:04;16.50;99.90
8953;DHT22;4511;50.890;8.054;2023-07-28T04:49:36;16.50;99.90
8953;DHT22;4511;50.890;8.054;2023-07-28T04:52:08;16.50;99.90
8953;DHT22;4511;50.890;8.054;2023-07-28T04:54:35;16.60;99.90
8953;DHT22;4511;50.890;8.054;2023-07-28T04:57:41;16.70;99.90
8953;DHT22;4511;50.890;8.054;2023-07-28T05:00:53;16.70;99.90
8953;DHT22;4511;50.890;8.054;2023-07-28T05:03:45;16.70;99.90
8953;DHT22;4511;50.890;8.054;2023-07-28T05:06:20;16.70;99.90
8953;DHT22;4511;50.890;8.054;2023-07-28T05:08:55;16.70;99.90
8953;DHT22;4511;50.890;8.054;2023-07-28T05:11:55;16.90;99.90
8953;DHT22;4511;50.890;8.054;2023-07-28T05:14:38;16.90;99.90
8953;DHT22;4511;50.890;8.054;2023-07-28T05:17:36;16.90;99.90
8953;DHT22;4511;50.890;8.054;2023-07-28T05:20:54;16.90;99.90
8953;DHT22;4511;50.890;8.054;2023-07-28T05:23:45;16.80;99.90
8953;DHT22;4511;50.890;8.054;2023-07-28T05:26:58;16.90;99.90
8953;DHT22;4511;50.890;8.054;2023-07-28T05:30:08;16.90;99.90
8953;DHT22;4511;50.890;8.054;2023-07-28T05:36:50;16.90;99.90
8953;DHT22;4511;50.890;8.054;2023-07-28T05:43:33;16.90;99.90
8953;DHT22;4511;50.890;8.054;2023-07-28T05:46:20;17.10;99.90
8953;DHT22;4511;50.890;8.054;2023-07-28T05:52:26;17.00;99.90
8953;DHT22;4511;50.890;8.054;2023-07-28T05:55:06;17.10;99.90
8953;DHT22;4511;50.890;8.054;2023-07-28T06:01:11;17.00;99.90
8953;DHT22;4511;50.890;8.054;2023-07-28T06:04:18;17.00;99.90
8953;DHT22;4511;50.890;8.054;2023-07-28T07:47:38;17.60;99.90
8953;DHT22;4511;50.890;8.054;2023-07-28T07:50:08;17.80;99.90
8953;DHT22;4511;50.890;8.054;2023-07-28T07:52:49;17.80;99.90
8953;DHT22;4511;50.890;8.054;2023-07-28T07:55:19;17.80;99.90
8953;DHT22;4511;50.890;8.054;2023-07-28T07:57:46;18.00;99.90
8953;DHT22;4511;50.890;8.054;2023-07-28T08:00:14;18.00;99.90
8953;DHT22;4511;50.890;8.054;2023-07-28T08:02:56;18.00;99.90
8953;DHT22;4511;50.890;8.054;2023-07-28T08:05:23;18.00;99.90
8953;DHT22;4511;50.890;8.054;2023-07-28T08:07:51;18.00;99.90
8953;DHT22;4511;50.890;8.054;2023-07-28T08:10:18;17.90;99.90
8953;DHT22;4511;50.890;8.054;2023-07-28T08:12:45;18.00;99.90
8953;DHT22;4511;50.890;8.054;2023-07-28T08:15:12;18.00;99.90
8953;DHT22;4511;50.890;8.054;2023-07-28T08:17:39;18.10;99.90
8953;DHT22;4511;50.890;8.054;2023-07-28T08:20:08;18.10;99.90
8953;DHT22;4511;50.890;8.054;2023-07-28T08:22:35;18.00;99.90
8953;DHT22;4511;50.890;8.054;2023-07-28T08:25:03;18.00;99.90
8953;DHT22;4511;50.890;8.054;2023-07-28T08:27:30;18.10;99.90
8953;DHT22;4511;50.890;8.054;2023-07-28T08:29:56;18.10;99.90
8953;DHT22;4511;50.890;8.054;2023-07-28T08:32:23;18.00;99.90
8953;DHT22;4511;50.890;8.054;2023-07-28T08:34:50;18.00;99.90
8953;DHT22;4511;50.890;8.054;2023-07-28T08:37:18;18.10;99.90
8953;DHT22;4511;50.890;8.054;2023-07-28T08:39:45;18.10;99.90
8953;DHT22;4511;50.890;8.054;2023-07-28T08:42:12;18.00;99.90
8953;DHT22;4511;50.890;8.054;2023-07-28T08:44:39;18.00;99.90
8953;DHT22;4511;50.890;8.054;2023-07-28T08:47:05;18.10;99.90
8953;DHT22;4511;50.890;8.054;2023-07-28T08:49:33;18.10;99.90
8953;DHT22;4511;50.890;8.054;2023-07-28T08:52:02;18.20;99.90
8953;DHT22;4511;50.890;8.054;2023-07-28T08:54:31;18.30;99.90
8953;DHT22;4511;50.890;8.054;2023-07-28T08:56:58;18.40;99.90
8953;DHT22;4511;50.890;8.054;2023-07-28T08:59:26;18.50;99.90
8953;DHT22;4511;50.890;8.054;2023-07-28T09:01:53;18.50;99.90
8953;DHT22;4511;50.890;8.054;2023-07-28T09:04:24;18.50;99.90
8953;DHT22;4511;50.890;8.054;2023-07-28T09:06:51;18.40;99.90
8953;DHT22;4511;50.890;8.054;2023-07-28T09:09:20;18.40;99.90
8953;DHT22;4511;50.890;8.054;2023-07-28T09:11:51;18.50;99.90
8953;DHT22;4511;50.890;8.054;2023-07-28T09:14:19;18.40;99.90
8953;DHT22;4511;50.890;8.054;2023-07-28T09:16:47;18.40;99.90
8953;DHT22;4511;50.890;8.054;2023-07-28T09:19:14;18.30;99.90
8953;DHT22;4511;50.890;8.054;2023-07-28T09:21:42;18.20;99.90
8953;DHT22;4511;50.890;8.054;2023-07-28T09:24:11;18.30;99.90
8953;DHT22;4511;50.890;8.054;2023-07-28T09:26:39;18.40;99.90
8953;DHT22;4511;50.890;8.054;2023-07-28T09:29:17;18.50;99.90
8953;DHT22;4511;50.890;8.054;2023-07-28T09:31:45;18.70;99.90
8953;DHT22;4511;50.890;8.054;2023-07-28T09:34:12;18.80;99.90
8953;DHT22;4511;50.890;8.054;2023-07-28T09:36:49;19.00;99.90
8953;DHT22;4511;50.890;8.054;2023-07-28T09:39:16;19.20;99.90
8953;DHT22;4511;50.890;8.054;2023-07-28T09:41:45;19.10;99.90
8953;DHT22;4511;50.890;8.054;2023-07-28T09:44:13;19.10;99.90
8953;DHT22;4511;50.890;8.054;2023-07-28T09:46:50;19.10;99.90
8953;DHT22;4511;50.890;8.054;2023-07-28T09:49:23;18.90;99.90
8953;DHT22;4511;50.890;8.054;2023-07-28T09:52:04;18.90;99.90
8953;DHT22;4511;50.890;8.054;2023-07-28T09:54:38;19.00;99.90
8953;DHT22;4511;50.890;8.054;2023-07-28T09:57:12;19.00;99.90
8953;DHT22;4511;50.890;8.054;2023-07-28T09:59:41;19.10;99.90
8953;DHT22;4511;50.890;8.054;2023-07-28T10:02:12;19.00;99.90
8953;DHT22;4511;50.890;8.054;2023-07-28T10:04:39;19.20;99.90
8953;DHT22;4511;50.890;8.054;2023-07-28T10:07:09;19.30;99.90
8953;DHT22;4511;50.890;8.054;2023-07-28T10:09:36;19.30;99.90
8953;DHT22;4511;50.890;8.054;2023-07-28T10:12:04;19.40;99.90
8953;DHT22;4511;50.890;8.054;2023-07-28T10:14:34;19.30;99.90
8953;DHT22;4511;50.890;8.054;2023-07-28T10:17:03;19.40;99.90
8953;DHT22;4511;50.890;8.054;2023-07-28T10:19:35;19.50;99.90
8953;DHT22;4511;50.890;8.054;2023-07-28T10:22:07;19.70;99.90
8953;DHT22;4511;50.890;8.054;2023-07-28T10:24:52;19.70;99.90
8953;DHT22;4511;50.890;8.054;2023-07-28T10:27:33;19.70;99.90
8953;DHT22;4511;50.890;8.054;2023-07-28T10:30:03;19.60;99.90
8953;DHT22;4511;50.890;8.054;2023-07-28T10:32:37;19.50;99.90
8953;DHT22;4511;50.890;8.054;2023-07-28T10:35:08;19.40;99.90
8953;DHT22;4511;50.890;8.054;2023-07-28T10:37:36;19.30;99.90
8953;DHT22;4511;50.890;8.054;2023-07-28T10:40:22;19.30;99.90
8953;DHT22;4511;50.890;8.054;2023-07-28T10:42:49;19.40;99.90
8953;DHT22;4511;50.890;8.054;2023-07-28T10:45:16;19.50;99.90
8953;DHT22;4511;50.890;8.054;2023-07-28T10:47:44;19.60;99.90
8953;DHT22;4511;50.890;8.054;2023-07-28T10:50:13;19.60;99.90
8953;DHT22;4511;50.890;8.054;2023-07-28T10:52:40;19.60;99.90
8953;DHT22;4511;50.890;8.054;2023-07-28T10:55:12;19.80;99.90
8953;DHT22;4511;50.890;8.054;2023-07-28T10:57:41;19.90;99.90
8953;DHT22;4511;50.890;8.054;2023-07-28T11:00:08;20.00;99.90
8953;DHT22;4511;50.890;8.054;2023-07-28T11:02:38;19.80;99.90
8953;DHT22;4511;50.890;8.054;2023-07-28T11:05:09;19.90;99.90
8953;DHT22;4511;50.890;8.054;2023-07-28T11:07:38;19.90;99.90
8953;DHT22;4511;50.890;8.054;2023-07-28T11:10:05;20.10;99.90
8953;DHT22;4511;50.890;8.054;2023-07-28T11:12:33;20.00;99.90
8953;DHT22;4511;50.890;8.054;2023-07-28T11:15:00;20.20;99.90
8953;DHT22;4511;50.890;8.054;2023-07-28T11:17:27;20.20;99.90
8953;DHT22;4511;50.890;8.054;2023-07-28T11:19:53;20.40;99.90
8953;DHT22;4511;50.890;8.054;2023-07-28T11:22:21;20.30;99.90
8953;DHT22;4511;50.890;8.054;2023-07-28T11:24:52;20.40;99.90
8953;DHT22;4511;50.890;8.054;2023-07-28T11:27:19;20.30;99.90
8953;DHT22;4511;50.890;8.054;2023-07-28T11:29:46;20.20;99.90
8953;DHT22;4511;50.890;8.054;2023-07-28T11:32:15;20.20;99.90
8953;DHT22;4511;50.890;8.054;2023-07-28T11:34:43;20.40;99.90
8953;DHT22;4511;50.890;8.054;2023-07-28T11:37:10;20.40;99.90
8953;DHT22;4511;50.890;8.054;2023-07-28T11:39:38;20.40;99.90
8953;DHT22;4511;50.890;8.054;2023-07-28T11:42:09;20.50;99.90
8953;DHT22;4511;50.890;8.054;2023-07-28T11:44:36;20.40;99.90
8953;DHT22;4511;50.890;8.054;2023-07-28T11:47:05;20.40;99.90
8953;DHT22;4511;50.890;8.054;2023-07-28T11:49:32;20.40;99.90
8953;DHT22;4511;50.890;8.054;2023-07-28T11:51:58;20.50;99.90
8953;DHT22;4511;50.890;8.054;2023-07-28T11:54:26;20.60;99.90
8953;DHT22;4511;50.890;8.054;2023-07-28T11:56:55;20.60;99.90
8953;DHT22;4511;50.890;8.054;2023-07-28T11:59:24;20.60;99.90
8953;DHT22;4511;50.890;8.054;2023-07-28T12:01:52;20.70;99.90
8953;DHT22;4511;50.890;8.054;2023-07-28T12:04:20;20.60;99.90
8953;DHT22;4511;50.890;8.054;2023-07-28T12:07:01;20.50;99.90
8953;DHT22;4511;50.890;8.054;2023-07-28T12:09:29;20.60;99.90
8953;DHT22;4511;50.890;8.054;2023-07-28T12:11:57;20.60;99.90
8953;DHT22;4511;50.890;8.054;2023-07-28T12:14:33;20.70;99.90
8953;DHT22;4511;50.890;8.054;2023-07-28T12:17:00;20.70;99.90
8953;DHT22;4511;50.890;8.054;2023-07-28T12:19:28;20.70;99.90
8953;DHT22;4511;50.890;8.054;2023-07-28T12:21:55;20.80;99.90
8953;DHT22;4511;50.890;8.054;2023-07-28T12:24:22;20.90;99.90
8953;DHT22;4511;50.890;8.054;2023-07-28T12:26:50;21.20;99.90
8953;DHT22;4511;50.890;8.054;2023-07-28T12:29:17;21.20;99.90
8953;DHT22;4511;50.890;8.054;2023-07-28T12:31:45;21.20;99.90
8953;DHT22;4511;50.890;8.054;2023-07-28T12:34:12;21.20;99.90
8953;DHT22;4511;50.890;8.054;2023-07-28T12:36:39;21.20;99.90
8953;DHT22;4511;50.890;8.054;2023-07-28T12:39:06;21.30;99.90
8953;DHT22;4511;50.890;8.054;2023-07-28T12:41:33;21.40;99.90
8953;DHT22;4511;50.890;8.054;2023-07-28T12:44:00;21.50;99.90
8953;DHT22;4511;50.890;8.054;2023-07-28T12:46:26;21.30;99.90
8953;DHT22;4511;50.890;8.054;2023-07-28T12:48:54;21.10;99.90
8953;DHT22;4511;50.890;8.054;2023-07-28T12:51:21;21.30;99.90
8953;DHT22;4511;50.890;8.054;2023-07-28T12:53:48;21.20;99.90
8953;DHT22;4511;50.890;8.054;2023-07-28T12:56:15;21.50;99.90
8953;DHT22;4511;50.890;8.054;2023-07-28T12:58:42;21.20;99.90
8953;DHT22;4511;50.890;8.054;2023-07-28T13:01:09;21.30;99.90
8953;DHT22;4511;50.890;8.054;2023-07-28T13:03:37;21.20;99.90
8953;DHT22;4511;50.890;8.054;2023-07-28T13:06:06;21.20;99.90
8953;DHT22;4511;50.890;8.054;2023-07-28T13:08:32;21.20;99.90
8953;DHT22;4511;50.890;8.054;2023-07-28T13:10:59;21.40;99.90
8953;DHT22;4511;50.890;8.054;2023-07-28T13:13:26;21.60;99.90
8953;DHT22;4511;50.890;8.054;2023-07-28T13:15:55;21.70;99.90
8953;DHT22;4511;50.890;8.054;2023-07-28T13:18:23;21.90;99.90
8953;DHT22;4511;50.890;8.054;2023-07-28T13:20:50;22.00;99.90
8953;DHT22;4511;50.890;8.054;2023-07-28T13:23:18;21.90;99.90
8953;DHT22;4511;50.890;8.054;2023-07-28T13:25:45;21.70;99.90
8953;DHT22;4511;50.890;8.054;2023-07-28T13:28:12;21.40;99.90
8953;DHT22;4511;50.890;8.054;2023-07-28T13:30:40;22.20;99.90
8953;DHT22;4511;50.890;8.054;2023-07-28T13:33:07;22.80;99.90
8953;DHT22;4511;50.890;8.054;2023-07-28T13:35:33;22.80;99.90
8953;DHT22;4511;50.890;8.054;2023-07-28T13:38:00;23.00;99.90
8953;DHT22;4511;50.890;8.054;2023-07-28T13:40:28;23.10;99.90
8953;DHT22;4511;50.890;8.054;2023-07-28T13:42:55;23.00;99.90
8953;DHT22;4511;50.890;8.054;2023-07-28T13:45:22;22.90;99.90
8953;DHT22;4511;50.890;8.054;2023-07-28T13:47:49;22.90;99.90
8953;DHT22;4511;50.890;8.054;2023-07-28T13:50:16;23.00;99.90
8953;DHT22;4511;50.890;8.054;2023-07-28T13:52:42;23.10;99.90
8953;DHT22;4511;50.890;8.054;2023-07-28T13:55:09;23.10;99.90
8953;DHT22;4511;50.890;8.054;2023-07-28T13:57:38;23.00;99.90
8953;DHT22;4511;50.890;8.054;2023-07-28T14:00:06;23.00;99.90
8953;DHT22;4511;50.890;8.054;2023-07-28T14:02:34;22.90;99.90
8953;DHT22;4511;50.890;8.054;2023-07-28T14:05:01;22.90;99.90
8953;DHT22;4511;50.890;8.054;2023-07-28T14:07:28;22.90;99.90
8953;DHT22;4511;50.890;8.054;2023-07-28T14:09:55;22.90;99.90
8953;DHT22;4511;50.890;8.054;2023-07-28T14:12:21;22.40;99.90
8953;DHT22;4511;50.890;8.054;2023-07-28T14:14:50;22.40;99.90
8953;DHT22;4511;50.890;8.054;2023-07-28T14:17:17;22.00;99.90
8953;DHT22;4511;50.890;8.054;2023-07-28T14:19:43;22.20;99.90
8953;DHT22;4511;50.890;8.054;2023-07-28T14:22:11;22.20;99.90
8953;DHT22;4511;50.890;8.054;2023-07-28T14:24:38;22.20;99.90
8953;DHT22;4511;50.890;8.054;2023-07-28T14:27:05;22.20;99.90
8953;DHT22;4511;50.890;8.054;2023-07-28T14:29:32;22.30;99.90
8953;DHT22;4511;50.890;8.054;2023-07-28T14:32:00;22.30;99.90
8953;DHT22;4511;50.890;8.054;2023-07-28T14:34:27;22.30;99.90
8953;DHT22;4511;50.890;8.054;2023-07-28T14:36:54;22.10;99.90
8953;DHT22;4511;50.890;8.054;2023-07-28T14:39:20;21.90;99.90
8953;DHT22;4511;50.890;8.054;2023-07-28T14:41:47;21.90;99.90
8953;DHT22;4511;50.890;8.054;2023-07-28T14:44:14;22.10;99.90
8953;DHT22;4511;50.890;8.054;2023-07-28T14:46:41;22.10;99.90
8953;DHT22;4511;50.890;8.054;2023-07-28T14:49:10;22.20;99.90
8953;DHT22;4511;50.890;8.054;2023-07-28T14:51:36;22.50;99.90
8953;DHT22;4511;50.890;8.054;2023-07-28T14:54:03;22.80;99.90
8953;DHT22;4511;50.890;8.054;2023-07-28T14:56:30;22.80;99.90
8953;DHT22;4511;50.890;8.054;2023-07-28T14:58:58;22.70;99.90
8953;DHT22;4511;50.890;8.054;2023-07-28T15:01:26;22.60;99.90
8953;DHT22;4511;50.890;8.054;2023-07-28T15:03:53;22.50;99.90
8953;DHT22;4511;50.890;8.054;2023-07-28T15:06:21;22.30;99.90
8953;DHT22;4511;50.890;8.054;2023-07-28T15:08:48;22.20;99.90
8953;DHT22;4511;50.890;8.054;2023-07-28T15:11:15;22.30;99.90
8953;DHT22;4511;50.890;8.054;2023-07-28T15:13:43;22.20;99.90
8953;DHT22;4511;50.890;8.054;2023-07-28T15:16:10;22.20;99.90
8953;DHT22;4511;50.890;8.054;2023-07-28T15:18:38;22.00;99.90
8953;DHT22;4511;50.890;8.054;2023-07-28T15:21:05;21.90;99.90
8953;DHT22;4511;50.890;8.054;2023-07-28T15:23:33;21.80;99.90
8953;DHT22;4511;50.890;8.054;2023-07-28T15:26:00;21.60;99.90
8953;DHT22;4511;50.890;8.054;2023-07-28T15:28:27;21.60;99.90
8953;DHT22;4511;50.890;8.054;2023-07-28T15:30:54;21.50;99.90
8953;DHT22;4511;50.890;8.054;2023-07-28T15:33:21;21.40;99.90
8953;DHT22;4511;50.890;8.054;2023-07-28T15:35:50;21.30;99.90
8953;DHT22;4511;50.890;8.054;2023-07-28T15:38:17;21.30;99.90
8953;DHT22;4511;50.890;8.054;2023-07-28T15:40:45;21.10;99.90
8953;DHT22;4511;50.890;8.054;2023-07-28T15:43:12;20.90;99.90
8953;DHT22;4511;50.890;8.054;2023-07-28T15:45:39;20.80;99.90
8953;DHT22;4511;50.890;8.054;2023-07-28T15:48:06;20.60;99.90
8953;DHT22;4511;50.890;8.054;2023-07-28T15:50:33;20.60;99.90
8953;DHT22;4511;50.890;8.054;2023-07-28T15:52:59;20.60;99.90
8953;DHT22;4511;50.890;8.054;2023-07-28T15:55:26;20.60;99.90
8953;DHT22;4511;50.890;8.054;2023-07-28T15:57:54;20.60;99.90
8953;DHT22;4511;50.890;8.054;2023-07-28T16:00:21;20.60;99.90
8953;DHT22;4511;50.890;8.054;2023-07-28T16:02:48;20.60;99.90
8953;DHT22;4511;50.890;8.054;2023-07-28T16:05:14;20.50;99.90
8953;DHT22;4511;50.890;8.054;2023-07-28T16:07:41;20.20;99.90
8953;DHT22;4511;50.890;8.054;2023-07-28T16:10:09;20.10;99.90
8953;DHT22;4511;50.890;8.054;2023-07-28T16:12:36;19.80;99.90
8953;DHT22;4511;50.890;8.054;2023-07-28T16:15:05;20.00;99.90
8953;DHT22;4511;50.890;8.054;2023-07-28T16:17:32;20.20;99.90
8953;DHT22;4511;50.890;8.054;2023-07-28T16:19:58;20.40;99.90
8953;DHT22;4511;50.890;8.054;2023-07-28T16:22:25;20.10;99.90
8953;DHT22;4511;50.890;8.054;2023-07-28T16:24:52;20.00;99.90
8953;DHT22;4511;50.890;8.054;2023-07-28T16:27:19;20.00;99.90
8953;DHT22;4511;50.890;8.054;2023-07-28T16:29:49;20.10;99.90
8953;DHT22;4511;50.890;8.054;2023-07-28T16:32:17;20.10;99.90
8953;DHT22;4511;50.890;8.054;2023-07-28T16:34:44;20.00;99.90
8953;DHT22;4511;50.890;8.054;2023-07-28T16:37:11;20.00;99.90
8953;DHT22;4511;50.890;8.054;2023-07-28T16:39:38;20.30;99.90
8953;DHT22;4511;50.890;8.054;2023-07-28T16:42:04;20.40;99.90
8953;DHT22;4511;50.890;8.054;2023-07-28T16:44:32;20.40;99.90
8953;DHT22;4511;50.890;8.054;2023-07-28T16:46:58;20.20;99.90
8953;DHT22;4511;50.890;8.054;2023-07-28T16:49:26;20.70;99.90
8953;DHT22;4511;50.890;8.054;2023-07-28T16:51:54;21.10;99.90
8953;DHT22;4511;50.890;8.054;2023-07-28T16:54:20;21.40;99.90
8953;DHT22;4511;50.890;8.054;2023-07-28T16:56:47;21.40;99.90
8953;DHT22;4511;50.890;8.054;2023-07-28T16:59:14;21.20;99.90
8953;DHT22;4511;50.890;8.054;2023-07-28T17:01:41;21.00;99.90
8953;DHT22;4511;50.890;8.054;2023-07-28T17:04:08;20.70;99.90
8953;DHT22;4511;50.890;8.054;2023-07-28T17:06:36;20.70;99.90
8953;DHT22;4511;50.890;8.054;2023-07-28T17:09:02;20.80;99.90
8953;DHT22;4511;50.890;8.054;2023-07-28T17:11:31;20.80;99.90
8953;DHT22;4511;50.890;8.054;2023-07-28T17:13:58;20.90;99.90
8953;DHT22;4511;50.890;8.054;2023-07-28T17:16:25;20.90;99.90
8953;DHT22;4511;50.890;8.054;2023-07-28T17:18:52;20.90;99.90
8953;DHT22;4511;50.890;8.054;2023-07-28T17:21:19;20.90;99.90
8953;DHT22;4511;50.890;8.054;2023-07-28T17:23:47;20.90;99.90
8953;DHT22;4511;50.890;8.054;2023-07-28T17:26:14;20.90;99.90
8953;DHT22;4511;50.890;8.054;2023-07-28T17:28:41;20.90;99.90
8953;DHT22;4511;50.890;8.054;2023-07-28T17:31:08;20.80;99.90
8953;DHT22;4511;50.890;8.054;2023-07-28T17:33:34;20.60;99.90
8953;DHT22;4511;50.890;8.054;2023-07-28T17:36:01;20.60;99.90
8953;DHT22;4511;50.890;8.054;2023-07-28T17:38:29;20.50;99.90
8953;DHT22;4511;50.890;8.054;2023-07-28T17:40:58;20.40;99.90
8953;DHT22;4511;50.890;8.054;2023-07-28T17:43:25;20.40;99.90
8953;DHT22;4511;50.890;8.054;2023-07-28T17:45:52;20.40;99.90
8953;DHT22;4511;50.890;8.054;2023-07-28T17:48:18;20.50;99.90
8953;DHT22;4511;50.890;8.054;2023-07-28T17:50:45;20.50;99.90
8953;DHT22;4511;50.890;8.054;2023-07-28T17:53:12;20.50;99.90
8953;DHT22;4511;50.890;8.054;2023-07-28T17:55:39;20.50;99.90
8953;DHT22;4511;50.890;8.054;2023-07-28T17:58:07;20.40;99.90
8953;DHT22;4511;50.890;8.054;2023-07-28T18:00:35;20.40;99.90
8953;DHT22;4511;50.890;8.054;2023-07-28T18:03:02;20.40;99.90
8953;DHT22;4511;50.890;8.054;2023-07-28T18:05:29;20.40;99.90
8953;DHT22;4511;50.890;8.054;2023-07-28T18:07:55;20.40;99.90
8953;DHT22;4511;50.890;8.054;2023-07-28T18:10:22;20.40;99.90
8953;DHT22;4511;50.890;8.054;2023-07-28T18:12:49;20.40;99.90
8953;DHT22;4511;50.890;8.054;2023-07-28T18:15:17;20.30;99.90
8953;DHT22;4511;50.890;8.054;2023-07-28T18:17:44;20.30;99.90
8953;DHT22;4511;50.890;8.054;2023-07-28T18:20:11;20.30;99.90
8953;DHT22;4511;50.890;8.054;2023-07-28T18:22:38;20.30;99.90
8953;DHT22;4511;50.890;8.054;2023-07-28T18:25:05;20.20;99.90
8953;DHT22;4511;50.890;8.054;2023-07-28T18:27:32;20.10;99.90
8953;DHT22;4511;50.890;8.054;2023-07-28T18:29:59;20.10;99.90
8953;DHT22;4511;50.890;8.054;2023-07-28T18:32:27;20.10;99.90
8953;DHT22;4511;50.890;8.054;2023-07-28T18:34:54;20.00;99.90
8953;DHT22;4511;50.890;8.054;2023-07-28T18:37:21;20.10;99.90
8953;DHT22;4511;50.890;8.054;2023-07-28T18:39:47;20.00;99.90
8953;DHT22;4511;50.890;8.054;2023-07-28T18:42:14;20.00;99.90
8953;DHT22;4511;50.890;8.054;2023-07-28T18:44:41;20.10;99.90
8953;DHT22;4511;50.890;8.054;2023-07-28T18:47:08;20.00;99.90
8953;DHT22;4511;50.890;8.054;2023-07-28T18:49:36;20.00;99.90
8953;DHT22;4511;50.890;8.054;2023-07-28T18:52:03;20.00;99.90
8953;DHT22;4511;50.890;8.054;2023-07-28T18:54:30;20.00;99.90
8953;DHT22;4511;50.890;8.054;2023-07-28T18:56:57;20.00;99.90
8953;DHT22;4511;50.890;8.054;2023-07-28T18:59:23;19.90;99.90
8953;DHT22;4511;50.890;8.054;2023-07-28T19:01:50;19.90;99.90
8953;DHT22;4511;50.890;8.054;2023-07-28T19:04:17;19.90;99.90
8953;DHT22;4511;50.890;8.054;2023-07-28T19:06:45;19.80;99.90